sensor_id;sensor_type;location;lat;lon;timestamp;P1;durP1;ratioP1;P2;durP2;ratioP2
59366;SDS011;45163;47.690;11.770;2022-07-21T00:00:10;9.03;;;5.70;;
59366;SDS011;45163;47.690;11.770;2022-07-21T00:02:37;9.80;;;6.53;;
59366;SDS011;45163;47.690;11.770;2022-07-21T00:05:03;10.97;;;6.47;;
59366;SDS011;45163;47.690;11.770;2022-07-21T00:07:29;10.07;;;6.97;;
59366;SDS011;45163;47.690;11.770;2022-07-21T00:09:55;14.83;;;7.00;;
59366;SDS011;45163;47.690;11.770;2022-07-21T00:12:24;13.57;;;7.27;;
59366;SDS011;45163;47.690;11.770;2022-07-21T00:14:50;12.67;;;7.20;;
59366;SDS011;45163;47.690;11.770;2022-07-21T00:17:16;7.73;;;6.60;;
59366;SDS011;45163;47.690;11.770;2022-07-21T00:19:42;8.90;;;6.97;;
59366;SDS011;45163;47.690;11.770;2022-07-21T00:22:08;12.43;;;6.70;;
59366;SDS011;45163;47.690;11.770;2022-07-21T00:24:34;10.27;;;6.90;;
59366;SDS011;45163;47.690;11.770;2022-07-21T00:27:00;11.57;;;7.20;;
59366;SDS011;45163;47.690;11.770;2022-07-21T00:29:26;15.63;;;6.97;;
59366;SDS011;45163;47.690;11.770;2022-07-21T00:31:52;12.50;;;7.20;;
59366;SDS011;45163;47.690;11.770;2022-07-21T00:34:18;11.60;;;7.40;;
59366;SDS011;45163;47.690;11.770;2022-07-21T00:36:44;13.07;;;6.87;;
59366;SDS011;45163;47.690;11.770;2022-07-21T00:39:10;11.70;;;7.40;;
59366;SDS011;45163;47.690;11.770;2022-07-21T00:41:36;10.97;;;6.57;;
59366;SDS011;45163;47.690;11.770;2022-07-21T00:44:02;8.97;;;6.53;;
59366;SDS011;45163;47.690;11.770;2022-07-21T00:46:29;8.30;;;6.33;;
59366;SDS011;45163;47.690;11.770;2022-07-21T00:48:55;10.13;;;6.53;;
59366;SDS011;45163;47.690;11.770;2022-07-21T00:51:21;8.87;;;6.60;;
59366;SDS011;45163;47.690;11.770;2022-07-21T00:53:48;6.60;;;5.90;;
59366;SDS011;45163;47.690;11.770;2022-07-21T00:56:14;12.27;;;6.57;;
59366;SDS011;45163;47.690;11.770;2022-07-21T00:58:42;8.77;;;6.33;;
59366;SDS011;45163;47.690;11.770;2022-07-21T01:01:09;7.10;;;6.40;;
59366;SDS011;45163;47.690;11.770;2022-07-21T01:03:35;10.33;;;6.07;;
59366;SDS011;45163;47.690;11.770;2022-07-21T01:06:02;12.90;;;6.73;;
59366;SDS011;45163;47.690;11.770;2022-07-21T01:08:29;9.03;;;6.53;;
59366;SDS011;45163;47.690;11.770;2022-07-21T01:10:55;11.13;;;6.30;;
59366;SDS011;45163;47.690;11.770;2022-07-21T01:13:21;8.50;;;6.03;;
59366;SDS011;45163;47.690;11.770;2022-07-21T01:15:47;12.63;;;6.10;;
59366;SDS011;45163;47.690;11.770;2022-07-21T01:18:13;8.93;;;6.13;;
59366;SDS011;45163;47.690;11.770;2022-07-21T01:20:39;11.47;;;6.63;;
59366;SDS011;45163;47.690;11.770;2022-07-21T01:23:10;9.93;;;6.43;;
59366;SDS011;45163;47.690;11.770;2022-07-21T01:25:36;8.90;;;6.63;;
59366;SDS011;45163;47.690;11.770;2022-07-21T01:28:02;7.33;;;6.40;;
59366;SDS011;45163;47.690;11.770;2022-07-21T01:30:29;13.53;;;6.80;;
59366;SDS011;45163;47.690;11.770;2022-07-21T01:32:55;13.83;;;6.50;;
59366;SDS011;45163;47.690;11.770;2022-07-21T01:35:23;8.67;;;6.00;;
59366;SDS011;45163;47.690;11.770;2022-07-21T01:37:49;7.03;;;5.93;;
59366;SDS011;45163;47.690;11.770;2022-07-21T01:40:18;5.77;;;5.27;;
59366;SDS011;45163;47.690;11.770;2022-07-21T01:43:02;6.50;;;5.80;;
59366;SDS011;45163;47.690;11.770;2022-07-21T01:45:29;9.47;;;5.70;;
59366;SDS011;45163;47.690;11.770;2022-07-21T01:47:55;9.90;;;5.90;;
59366;SDS011;45163;47.690;11.770;2022-07-21T01:50:22;7.10;;;5.97;;
59366;SDS011;45163;47.690;11.770;2022-07-21T01:52:55;8.77;;;5.97;;
59366;SDS011;45163;47.690;11.770;2022-07-21T01:55:23;8.83;;;6.47;;
59366;SDS011;45163;47.690;11.770;2022-07-21T01:57:50;8.77;;;5.93;;
59366;SDS011;45163;47.690;11.770;2022-07-21T02:00:16;10.23;;;6.13;;
59366;SDS011;45163;47.690;11.770;2022-07-21T02:02:43;8.03;;;5.70;;
59366;SDS011;45163;47.690;11.770;2022-07-21T02:05:09;7.97;;;5.67;;
59366;SDS011;45163;47.690;11.770;2022-07-21T02:07:35;7.20;;;5.60;;
59366;SDS011;45163;47.690;11.770;2022-07-21T02:10:01;9.97;;;6.70;;
59366;SDS011;45163;47.690;11.770;2022-07-21T02:12:27;10.77;;;6.20;;
59366;SDS011;45163;47.690;11.770;2022-07-21T02:14:53;7.87;;;6.00;;
59366;SDS011;45163;47.690;11.770;2022-07-21T02:17:20;7.90;;;6.40;;
59366;SDS011;45163;47.690;11.770;2022-07-21T02:19:46;7.67;;;6.30;;
59366;SDS011;45163;47.690;11.770;2022-07-21T02:22:12;8.07;;;6.57;;
59366;SDS011;45163;47.690;11.770;2022-07-21T02:24:38;9.07;;;6.30;;
59366;SDS011;45163;47.690;11.770;2022-07-21T02:27:05;9.03;;;6.10;;
59366;SDS011;45163;47.690;11.770;2022-07-21T02:29:31;9.10;;;6.13;;
59366;SDS011;45163;47.690;11.770;2022-07-21T02:31:57;10.23;;;6.30;;
59366;SDS011;45163;47.690;11.770;2022-07-21T02:34:23;7.37;;;6.20;;
59366;SDS011;45163;47.690;11.770;2022-07-21T02:36:49;9.13;;;6.40;;
59366;SDS011;45163;47.690;11.770;2022-07-21T02:39:15;7.77;;;6.30;;
59366;SDS011;45163;47.690;11.770;2022-07-21T02:41:41;7.30;;;6.13;;
59366;SDS011;45163;47.690;11.770;2022-07-21T02:44:07;8.93;;;5.97;;
59366;SDS011;45163;47.690;11.770;2022-07-21T02:46:37;10.43;;;6.17;;
59366;SDS011;45163;47.690;11.770;2022-07-21T02:49:03;10.30;;;6.10;;
59366;SDS011;45163;47.690;11.770;2022-07-21T02:51:29;7.77;;;6.43;;
59366;SDS011;45163;47.690;11.770;2022-07-21T02:53:55;7.73;;;5.87;;
59366;SDS011;45163;47.690;11.770;2022-07-21T02:56:21;8.10;;;6.30;;
59366;SDS011;45163;47.690;11.770;2022-07-21T02:58:47;7.97;;;6.50;;
59366;SDS011;45163;47.690;11.770;2022-07-21T03:01:13;9.20;;;6.27;;
59366;SDS011;45163;47.690;11.770;2022-07-21T03:03:39;6.90;;;6.20;;
59366;SDS011;45163;47.690;11.770;2022-07-21T03:06:05;10.77;;;6.37;;
59366;SDS011;45163;47.690;11.770;2022-07-21T03:08:32;7.30;;;6.60;;
59366;SDS011;45163;47.690;11.770;2022-07-21T03:10:59;7.10;;;6.40;;
59366;SDS011;45163;47.690;11.770;2022-07-21T03:13:25;7.40;;;6.70;;
59366;SDS011;45163;47.690;11.770;2022-07-21T03:15:51;11.23;;;7.07;;
59366;SDS011;45163;47.690;11.770;2022-07-21T03:18:18;7.07;;;6.23;;
59366;SDS011;45163;47.690;11.770;2022-07-21T03:20:45;7.93;;;7.00;;
59366;SDS011;45163;47.690;11.770;2022-07-21T03:23:11;7.03;;;6.10;;
59366;SDS011;45163;47.690;11.770;2022-07-21T03:25:37;7.03;;;6.33;;
59366;SDS011;45163;47.690;11.770;2022-07-21T03:28:04;8.03;;;6.33;;
59366;SDS011;45163;47.690;11.770;2022-07-21T03:30:31;8.60;;;6.27;;
59366;SDS011;45163;47.690;11.770;2022-07-21T03:32:57;10.77;;;6.53;;
59366;SDS011;45163;47.690;11.770;2022-07-21T03:35:23;7.80;;;6.27;;
59366;SDS011;45163;47.690;11.770;2022-07-21T03:37:50;7.63;;;6.73;;
59366;SDS011;45163;47.690;11.770;2022-07-21T03:40:23;7.73;;;6.20;;
59366;SDS011;45163;47.690;11.770;2022-07-21T03:42:51;10.50;;;6.67;;
59366;SDS011;45163;47.690;11.770;2022-07-21T03:45:18;7.70;;;6.37;;
59366;SDS011;45163;47.690;11.770;2022-07-21T03:47:45;7.20;;;6.50;;
59366;SDS011;45163;47.690;11.770;2022-07-21T03:50:11;6.63;;;6.00;;
59366;SDS011;45163;47.690;11.770;2022-07-21T03:52:37;7.63;;;6.43;;
59366;SDS011;45163;47.690;11.770;2022-07-21T03:55:04;7.87;;;6.80;;
59366;SDS011;45163;47.690;11.770;2022-07-21T03:57:37;9.60;;;6.70;;
59366;SDS011;45163;47.690;11.770;2022-07-21T04:00:12;10.50;;;6.30;;
59366;SDS011;45163;47.690;11.770;2022-07-21T04:02:41;8.10;;;6.10;;
59366;SDS011;45163;47.690;11.770;2022-07-21T04:05:08;9.37;;;6.47;;
59366;SDS011;45163;47.690;11.770;2022-07-21T04:07:38;6.90;;;6.20;;
59366;SDS011;45163;47.690;11.770;2022-07-21T04:10:05;7.70;;;6.90;;
59366;SDS011;45163;47.690;11.770;2022-07-21T04:12:32;9.27;;;6.27;;
59366;SDS011;45163;47.690;11.770;2022-07-21T04:14:58;7.20;;;6.37;;
59366;SDS011;45163;47.690;11.770;2022-07-21T04:17:24;10.37;;;7.33;;
59366;SDS011;45163;47.690;11.770;2022-07-21T04:19:50;8.63;;;6.97;;
59366;SDS011;45163;47.690;11.770;2022-07-21T04:22:16;7.57;;;6.87;;
59366;SDS011;45163;47.690;11.770;2022-07-21T04:24:42;10.43;;;6.83;;
59366;SDS011;45163;47.690;11.770;2022-07-21T04:27:09;8.63;;;6.30;;
59366;SDS011;45163;47.690;11.770;2022-07-21T04:29:35;9.30;;;7.27;;
59366;SDS011;45163;47.690;11.770;2022-07-21T04:32:01;7.33;;;6.47;;
59366;SDS011;45163;47.690;11.770;2022-07-21T04:34:27;10.27;;;6.67;;
59366;SDS011;45163;47.690;11.770;2022-07-21T04:36:54;10.83;;;7.03;;
59366;SDS011;45163;47.690;11.770;2022-07-21T04:39:20;9.13;;;6.70;;
59366;SDS011;45163;47.690;11.770;2022-07-21T04:41:46;9.90;;;7.00;;
59366;SDS011;45163;47.690;11.770;2022-07-21T04:44:12;7.53;;;6.73;;
59366;SDS011;45163;47.690;11.770;2022-07-21T04:46:38;7.67;;;6.97;;
59366;SDS011;45163;47.690;11.770;2022-07-21T04:49:04;8.67;;;6.70;;
59366;SDS011;45163;47.690;11.770;2022-07-21T04:51:31;8.27;;;7.00;;
59366;SDS011;45163;47.690;11.770;2022-07-21T04:53:57;7.53;;;6.83;;
59366;SDS011;45163;47.690;11.770;2022-07-21T04:56:23;8.40;;;6.70;;
59366;SDS011;45163;47.690;11.770;2022-07-21T04:58:49;12.73;;;7.50;;
59366;SDS011;45163;47.690;11.770;2022-07-21T05:01:16;7.67;;;6.80;;
59366;SDS011;45163;47.690;11.770;2022-07-21T05:03:44;8.73;;;7.13;;
59366;SDS011;45163;47.690;11.770;2022-07-21T05:06:10;11.07;;;7.43;;
59366;SDS011;45163;47.690;11.770;2022-07-21T05:08:37;9.30;;;7.57;;
59366;SDS011;45163;47.690;11.770;2022-07-21T05:11:03;10.17;;;7.07;;
59366;SDS011;45163;47.690;11.770;2022-07-21T05:13:29;13.67;;;8.10;;
59366;SDS011;45163;47.690;11.770;2022-07-21T05:15:55;14.23;;;8.13;;
59366;SDS011;45163;47.690;11.770;2022-07-21T05:18:21;11.30;;;7.17;;
59366;SDS011;45163;47.690;11.770;2022-07-21T05:20:50;13.67;;;8.10;;
59366;SDS011;45163;47.690;11.770;2022-07-21T05:23:16;10.87;;;7.70;;
59366;SDS011;45163;47.690;11.770;2022-07-21T05:25:42;12.97;;;8.03;;
59366;SDS011;45163;47.690;11.770;2022-07-21T05:28:08;9.57;;;7.10;;
59366;SDS011;45163;47.690;11.770;2022-07-21T05:30:34;9.70;;;7.13;;
59366;SDS011;45163;47.690;11.770;2022-07-21T05:33:01;10.33;;;7.27;;
59366;SDS011;45163;47.690;11.770;2022-07-21T05:35:27;12.80;;;7.53;;
59366;SDS011;45163;47.690;11.770;2022-07-21T05:37:53;11.23;;;7.73;;
59366;SDS011;45163;47.690;11.770;2022-07-21T05:40:19;11.97;;;7.80;;
59366;SDS011;45163;47.690;11.770;2022-07-21T05:42:45;11.63;;;8.27;;
59366;SDS011;45163;47.690;11.770;2022-07-21T05:45:11;13.97;;;7.50;;
59366;SDS011;45163;47.690;11.770;2022-07-21T05:47:38;8.83;;;7.80;;
59366;SDS011;45163;47.690;11.770;2022-07-21T05:50:05;15.27;;;8.00;;
59366;SDS011;45163;47.690;11.770;2022-07-21T05:52:31;11.13;;;7.60;;
59366;SDS011;45163;47.690;11.770;2022-07-21T05:54:57;9.93;;;7.60;;
59366;SDS011;45163;47.690;11.770;2022-07-21T05:57:25;11.40;;;7.23;;
59366;SDS011;45163;47.690;11.770;2022-07-21T05:59:52;7.83;;;7.03;;
59366;SDS011;45163;47.690;11.770;2022-07-21T06:02:18;14.00;;;7.50;;
59366;SDS011;45163;47.690;11.770;2022-07-21T06:04:44;8.47;;;6.67;;
59366;SDS011;45163;47.690;11.770;2022-07-21T06:07:10;8.97;;;7.17;;
59366;SDS011;45163;47.690;11.770;2022-07-21T06:09:36;10.13;;;7.10;;
59366;SDS011;45163;47.690;11.770;2022-07-21T06:12:02;9.00;;;6.93;;
59366;SDS011;45163;47.690;11.770;2022-07-21T06:14:28;9.00;;;7.20;;
59366;SDS011;45163;47.690;11.770;2022-07-21T06:16:54;10.33;;;7.43;;
59366;SDS011;45163;47.690;11.770;2022-07-21T06:19:20;11.53;;;7.27;;
59366;SDS011;45163;47.690;11.770;2022-07-21T06:21:46;11.53;;;8.10;;
59366;SDS011;45163;47.690;11.770;2022-07-21T06:24:13;12.53;;;6.97;;
59366;SDS011;45163;47.690;11.770;2022-07-21T06:26:39;9.67;;;7.10;;
59366;SDS011;45163;47.690;11.770;2022-07-21T06:29:06;13.17;;;6.67;;
59366;SDS011;45163;47.690;11.770;2022-07-21T06:31:33;15.37;;;7.27;;
59366;SDS011;45163;47.690;11.770;2022-07-21T06:33:59;10.00;;;7.00;;
59366;SDS011;45163;47.690;11.770;2022-07-21T06:36:25;11.70;;;6.73;;
59366;SDS011;45163;47.690;11.770;2022-07-21T06:38:51;8.07;;;6.47;;
59366;SDS011;45163;47.690;11.770;2022-07-21T06:41:17;11.43;;;6.53;;
59366;SDS011;45163;47.690;11.770;2022-07-21T06:43:43;8.00;;;7.20;;
59366;SDS011;45163;47.690;11.770;2022-07-21T06:46:09;10.40;;;6.53;;
59366;SDS011;45163;47.690;11.770;2022-07-21T06:48:35;7.30;;;6.60;;
59366;SDS011;45163;47.690;11.770;2022-07-21T06:51:01;12.40;;;7.13;;
59366;SDS011;45163;47.690;11.770;2022-07-21T06:53:27;10.23;;;6.40;;
59366;SDS011;45163;47.690;11.770;2022-07-21T06:55:54;12.30;;;7.00;;
59366;SDS011;45163;47.690;11.770;2022-07-21T06:58:21;8.27;;;6.90;;
59366;SDS011;45163;47.690;11.770;2022-07-21T07:00:50;10.80;;;7.57;;
59366;SDS011;45163;47.690;11.770;2022-07-21T07:03:17;10.80;;;6.43;;
59366;SDS011;45163;47.690;11.770;2022-07-21T07:05:44;8.60;;;6.90;;
59366;SDS011;45163;47.690;11.770;2022-07-21T07:08:12;7.60;;;6.63;;
59366;SDS011;45163;47.690;11.770;2022-07-21T07:10:39;9.43;;;6.63;;
59366;SDS011;45163;47.690;11.770;2022-07-21T07:13:06;11.18;;;6.40;;
59366;SDS011;45163;47.690;11.770;2022-07-21T07:15:32;12.75;;;7.18;;
59366;SDS011;45163;47.690;11.770;2022-07-21T07:17:58;8.75;;;6.57;;
59366;SDS011;45163;47.690;11.770;2022-07-21T07:20:24;9.27;;;6.97;;
59366;SDS011;45163;47.690;11.770;2022-07-21T07:22:51;22.80;;;8.30;;
59366;SDS011;45163;47.690;11.770;2022-07-21T07:25:17;9.73;;;6.47;;
59366;SDS011;45163;47.690;11.770;2022-07-21T07:27:44;9.90;;;6.57;;
59366;SDS011;45163;47.690;11.770;2022-07-21T07:30:11;8.70;;;6.75;;
59366;SDS011;45163;47.690;11.770;2022-07-21T07:32:38;11.57;;;7.20;;
59366;SDS011;45163;47.690;11.770;2022-07-21T07:35:05;11.48;;;7.13;;
59366;SDS011;45163;47.690;11.770;2022-07-21T07:37:34;10.52;;;7.30;;
59366;SDS011;45163;47.690;11.770;2022-07-21T07:40:02;12.15;;;7.03;;
59366;SDS011;45163;47.690;11.770;2022-07-21T07:42:30;11.73;;;7.05;;
59366;SDS011;45163;47.690;11.770;2022-07-21T07:44:56;11.23;;;6.95;;
59366;SDS011;45163;47.690;11.770;2022-07-21T07:47:22;9.07;;;6.75;;
59366;SDS011;45163;47.690;11.770;2022-07-21T07:49:48;11.38;;;7.32;;
59366;SDS011;45163;47.690;11.770;2022-07-21T07:52:16;11.07;;;7.05;;
59366;SDS011;45163;47.690;11.770;2022-07-21T07:54:42;10.90;;;6.63;;
59366;SDS011;45163;47.690;11.770;2022-07-21T07:57:08;10.65;;;6.20;;
59366;SDS011;45163;47.690;11.770;2022-07-21T07:59:34;7.45;;;6.47;;
59366;SDS011;45163;47.690;11.770;2022-07-21T08:02:00;7.63;;;6.67;;
59366;SDS011;45163;47.690;11.770;2022-07-21T08:04:26;7.10;;;6.37;;
59366;SDS011;45163;47.690;11.770;2022-07-21T08:06:53;7.83;;;6.43;;
59366;SDS011;45163;47.690;11.770;2022-07-21T08:09:19;7.60;;;6.73;;
59366;SDS011;45163;47.690;11.770;2022-07-21T08:11:45;9.07;;;6.73;;
59366;SDS011;45163;47.690;11.770;2022-07-21T08:14:13;11.23;;;7.50;;
59366;SDS011;45163;47.690;11.770;2022-07-21T08:16:39;8.90;;;6.57;;
59366;SDS011;45163;47.690;11.770;2022-07-21T08:19:06;9.17;;;7.13;;
59366;SDS011;45163;47.690;11.770;2022-07-21T08:21:32;10.07;;;7.53;;
59366;SDS011;45163;47.690;11.770;2022-07-21T08:24:02;8.37;;;7.53;;
59366;SDS011;45163;47.690;11.770;2022-07-21T08:26:28;8.30;;;7.40;;
59366;SDS011;45163;47.690;11.770;2022-07-21T08:28:55;10.57;;;8.20;;
59366;SDS011;45163;47.690;11.770;2022-07-21T08:31:22;11.37;;;7.77;;
59366;SDS011;45163;47.690;11.770;2022-07-21T08:33:50;11.33;;;7.13;;
59366;SDS011;45163;47.690;11.770;2022-07-21T08:36:17;9.63;;;7.47;;
59366;SDS011;45163;47.690;11.770;2022-07-21T08:38:44;11.57;;;8.50;;
59366;SDS011;45163;47.690;11.770;2022-07-21T08:41:10;10.17;;;8.03;;
59366;SDS011;45163;47.690;11.770;2022-07-21T08:43:37;11.60;;;8.07;;
59366;SDS011;45163;47.690;11.770;2022-07-21T08:46:04;10.80;;;8.23;;
59366;SDS011;45163;47.690;11.770;2022-07-21T08:48:30;12.80;;;7.67;;
59366;SDS011;45163;47.690;11.770;2022-07-21T08:50:57;13.17;;;8.30;;
59366;SDS011;45163;47.690;11.770;2022-07-21T08:53:24;9.90;;;7.73;;
59366;SDS011;45163;47.690;11.770;2022-07-21T08:55:50;10.70;;;8.53;;
59366;SDS011;45163;47.690;11.770;2022-07-21T08:58:17;11.83;;;8.50;;
59366;SDS011;45163;47.690;11.770;2022-07-21T09:00:45;10.53;;;8.17;;
59366;SDS011;45163;47.690;11.770;2022-07-21T09:08:29;11.23;;;8.33;;
59366;SDS011;45163;47.690;11.770;2022-07-21T09:13:37;12.80;;;9.17;;
59366;SDS011;45163;47.690;11.770;2022-07-21T09:16:03;9.03;;;7.97;;
59366;SDS011;45163;47.690;11.770;2022-07-21T09:18:29;13.47;;;9.40;;
59366;SDS011;45163;47.690;11.770;2022-07-21T09:20:55;16.70;;;8.87;;
59366;SDS011;45163;47.690;11.770;2022-07-21T09:23:24;12.60;;;8.53;;
59366;SDS011;45163;47.690;11.770;2022-07-21T09:25:51;14.20;;;8.60;;
59366;SDS011;45163;47.690;11.770;2022-07-21T09:28:20;14.83;;;9.57;;
59366;SDS011;45163;47.690;11.770;2022-07-21T09:33:32;10.93;;;8.33;;
59366;SDS011;45163;47.690;11.770;2022-07-21T09:36:08;12.97;;;9.27;;
59366;SDS011;45163;47.690;11.770;2022-07-21T09:38:49;10.17;;;8.90;;
59366;SDS011;45163;47.690;11.770;2022-07-21T09:41:17;11.27;;;9.50;;
59366;SDS011;45163;47.690;11.770;2022-07-21T09:43:47;12.87;;;9.00;;
59366;SDS011;45163;47.690;11.770;2022-07-21T09:48:46;14.67;;;8.37;;
59366;SDS011;45163;47.690;11.770;2022-07-21T09:51:20;12.33;;;9.17;;
59366;SDS011;45163;47.690;11.770;2022-07-21T09:53:51;10.07;;;8.90;;
59366;SDS011;45163;47.690;11.770;2022-07-21T09:56:22;12.40;;;8.83;;
59366;SDS011;45163;47.690;11.770;2022-07-21T09:58:53;10.97;;;8.43;;
59366;SDS011;45163;47.690;11.770;2022-07-21T10:01:21;9.90;;;8.47;;
59366;SDS011;45163;47.690;11.770;2022-07-21T10:03:48;10.60;;;8.67;;
59366;SDS011;45163;47.690;11.770;2022-07-21T10:06:16;10.00;;;8.23;;
59366;SDS011;45163;47.690;11.770;2022-07-21T10:08:43;10.27;;;8.40;;
59366;SDS011;45163;47.690;11.770;2022-07-21T10:11:10;10.47;;;9.33;;
59366;SDS011;45163;47.690;11.770;2022-07-21T10:13:37;9.73;;;8.73;;
59366;SDS011;45163;47.690;11.770;2022-07-21T10:16:04;16.50;;;9.27;;
59366;SDS011;45163;47.690;11.770;2022-07-21T10:18:54;12.27;;;8.70;;
59366;SDS011;45163;47.690;11.770;2022-07-21T10:24:27;10.90;;;9.07;;
59366;SDS011;45163;47.690;11.770;2022-07-21T10:32:17;12.03;;;8.37;;
59366;SDS011;45163;47.690;11.770;2022-07-21T10:34:44;12.57;;;9.40;;
59366;SDS011;45163;47.690;11.770;2022-07-21T10:37:11;11.13;;;8.90;;
59366;SDS011;45163;47.690;11.770;2022-07-21T10:40:06;10.50;;;8.90;;
59366;SDS011;45163;47.690;11.770;2022-07-21T10:47:57;12.60;;;9.20;;
59366;SDS011;45163;47.690;11.770;2022-07-21T10:50:31;11.63;;;9.10;;
59366;SDS011;45163;47.690;11.770;2022-07-21T10:53:00;13.97;;;9.00;;
59366;SDS011;45163;47.690;11.770;2022-07-21T10:55:31;10.63;;;9.50;;
59366;SDS011;45163;47.690;11.770;2022-07-21T10:58:15;13.93;;;9.17;;
59366;SDS011;45163;47.690;11.770;2022-07-21T11:03:41;11.87;;;9.83;;
59366;SDS011;45163;47.690;11.770;2022-07-21T11:06:12;11.83;;;10.57;;
59366;SDS011;45163;47.690;11.770;2022-07-21T11:08:40;13.77;;;10.53;;
59366;SDS011;45163;47.690;11.770;2022-07-21T11:11:12;11.60;;;10.07;;
59366;SDS011;45163;47.690;11.770;2022-07-21T11:22:01;11.63;;;10.40;;
59366;SDS011;45163;47.690;11.770;2022-07-21T11:24:32;12.17;;;10.93;;
59366;SDS011;45163;47.690;11.770;2022-07-21T11:27:05;13.00;;;10.80;;
59366;SDS011;45163;47.690;11.770;2022-07-21T11:29:35;13.47;;;10.83;;
59366;SDS011;45163;47.690;11.770;2022-07-21T11:32:03;15.03;;;10.50;;
59366;SDS011;45163;47.690;11.770;2022-07-21T11:34:40;12.40;;;10.53;;
59366;SDS011;45163;47.690;11.770;2022-07-21T11:37:06;11.33;;;10.23;;
59366;SDS011;45163;47.690;11.770;2022-07-21T11:39:32;12.30;;;10.27;;
59366;SDS011;45163;47.690;11.770;2022-07-21T11:42:06;12.60;;;10.63;;
59366;SDS011;45163;47.690;11.770;2022-07-21T11:44:34;13.13;;;10.70;;
59366;SDS011;45163;47.690;11.770;2022-07-21T11:47:02;11.57;;;10.37;;
59366;SDS011;45163;47.690;11.770;2022-07-21T11:49:29;13.50;;;10.93;;
59366;SDS011;45163;47.690;11.770;2022-07-21T11:57:07;15.63;;;11.50;;
59366;SDS011;45163;47.690;11.770;2022-07-21T11:59:34;16.97;;;11.57;;
59366;SDS011;45163;47.690;11.770;2022-07-21T12:02:05;16.67;;;11.27;;
59366;SDS011;45163;47.690;11.770;2022-07-21T12:07:05;11.80;;;10.47;;
59366;SDS011;45163;47.690;11.770;2022-07-21T12:09:51;10.57;;;9.47;;
59366;SDS011;45163;47.690;11.770;2022-07-21T12:14:53;13.50;;;9.90;;
59366;SDS011;45163;47.690;11.770;2022-07-21T12:17:36;12.63;;;9.50;;
59366;SDS011;45163;47.690;11.770;2022-07-21T12:20:04;11.03;;;9.30;;
59366;SDS011;45163;47.690;11.770;2022-07-21T12:22:38;11.63;;;8.73;;
59366;SDS011;45163;47.690;11.770;2022-07-21T12:25:15;14.60;;;9.37;;
59366;SDS011;45163;47.690;11.770;2022-07-21T12:27:43;11.43;;;9.20;;
59366;SDS011;45163;47.690;11.770;2022-07-21T12:30:28;13.13;;;9.20;;
59366;SDS011;45163;47.690;11.770;2022-07-21T12:33:01;9.83;;;8.83;;
59366;SDS011;45163;47.690;11.770;2022-07-21T12:35:29;17.93;;;9.53;;
59366;SDS011;45163;47.690;11.770;2022-07-21T12:40:21;14.47;;;9.17;;
59366;SDS011;45163;47.690;11.770;2022-07-21T12:42:48;9.53;;;8.53;;
59366;SDS011;45163;47.690;11.770;2022-07-21T12:45:16;12.63;;;8.80;;
59366;SDS011;45163;47.690;11.770;2022-07-21T12:48:04;11.27;;;9.00;;
59366;SDS011;45163;47.690;11.770;2022-07-21T12:50:34;13.07;;;9.50;;
59366;SDS011;45163;47.690;11.770;2022-07-21T12:53:01;14.97;;;9.40;;
59366;SDS011;45163;47.690;11.770;2022-07-21T12:55:28;11.87;;;7.80;;
59366;SDS011;45163;47.690;11.770;2022-07-21T12:57:54;11.60;;;8.47;;
59366;SDS011;45163;47.690;11.770;2022-07-21T13:00:20;10.43;;;8.23;;
59366;SDS011;45163;47.690;11.770;2022-07-21T13:02:50;11.10;;;8.50;;
59366;SDS011;45163;47.690;11.770;2022-07-21T13:05:20;11.93;;;7.90;;
59366;SDS011;45163;47.690;11.770;2022-07-21T13:07:48;9.60;;;7.90;;
59366;SDS011;45163;47.690;11.770;2022-07-21T13:10:14;10.57;;;8.10;;
59366;SDS011;45163;47.690;11.770;2022-07-21T13:12:41;9.10;;;8.30;;
59366;SDS011;45163;47.690;11.770;2022-07-21T13:15:08;10.23;;;8.47;;
59366;SDS011;45163;47.690;11.770;2022-07-21T13:17:34;11.03;;;8.53;;
59366;SDS011;45163;47.690;11.770;2022-07-21T13:20:00;12.23;;;8.17;;
59366;SDS011;45163;47.690;11.770;2022-07-21T13:22:26;9.03;;;7.97;;
59366;SDS011;45163;47.690;11.770;2022-07-21T13:24:54;10.50;;;7.77;;
59366;SDS011;45163;47.690;11.770;2022-07-21T13:27:21;12.40;;;8.03;;
59366;SDS011;45163;47.690;11.770;2022-07-21T13:29:47;9.60;;;8.60;;
59366;SDS011;45163;47.690;11.770;2022-07-21T13:32:14;9.20;;;8.10;;
59366;SDS011;45163;47.690;11.770;2022-07-21T13:34:40;11.70;;;9.03;;
59366;SDS011;45163;47.690;11.770;2022-07-21T13:37:06;12.90;;;8.40;;
59366;SDS011;45163;47.690;11.770;2022-07-21T13:39:37;9.70;;;8.43;;
59366;SDS011;45163;47.690;11.770;2022-07-21T13:42:04;9.53;;;8.57;;
59366;SDS011;45163;47.690;11.770;2022-07-21T13:44:31;12.60;;;9.10;;
59366;SDS011;45163;47.690;11.770;2022-07-21T13:46:57;11.30;;;8.47;;
59366;SDS011;45163;47.690;11.770;2022-07-21T13:49:23;10.83;;;9.30;;
59366;SDS011;45163;47.690;11.770;2022-07-21T13:51:49;16.20;;;8.83;;
59366;SDS011;45163;47.690;11.770;2022-07-21T13:54:16;10.80;;;7.60;;
59366;SDS011;45163;47.690;11.770;2022-07-21T13:56:42;12.03;;;7.70;;
59366;SDS011;45163;47.690;11.770;2022-07-21T13:59:08;9.83;;;7.97;;
59366;SDS011;45163;47.690;11.770;2022-07-21T14:01:34;11.23;;;8.23;;
59366;SDS011;45163;47.690;11.770;2022-07-21T14:04:00;9.13;;;7.50;;
59366;SDS011;45163;47.690;11.770;2022-07-21T14:40:41;11.07;;;8.97;;
59366;SDS011;45163;47.690;11.770;2022-07-21T14:43:07;10.30;;;8.70;;
59366;SDS011;45163;47.690;11.770;2022-07-21T14:45:33;10.47;;;8.10;;
59366;SDS011;45163;47.690;11.770;2022-07-21T14:47:59;11.43;;;8.23;;
59366;SDS011;45163;47.690;11.770;2022-07-21T14:50:26;13.30;;;8.47;;
59366;SDS011;45163;47.690;11.770;2022-07-21T14:52:54;10.80;;;8.90;;
59366;SDS011;45163;47.690;11.770;2022-07-21T14:55:21;9.93;;;8.57;;
59366;SDS011;45163;47.690;11.770;2022-07-21T14:57:50;12.83;;;8.43;;
59366;SDS011;45163;47.690;11.770;2022-07-21T15:00:17;11.77;;;9.43;;
59366;SDS011;45163;47.690;11.770;2022-07-21T15:02:43;12.17;;;8.60;;
59366;SDS011;45163;47.690;11.770;2022-07-21T15:05:10;11.90;;;8.50;;
59366;SDS011;45163;47.690;11.770;2022-07-21T15:07:36;12.90;;;9.20;;
59366;SDS011;45163;47.690;11.770;2022-07-21T15:10:03;10.90;;;8.90;;
59366;SDS011;45163;47.690;11.770;2022-07-21T15:12:29;16.10;;;8.93;;
59366;SDS011;45163;47.690;11.770;2022-07-21T15:14:55;11.50;;;8.80;;
59366;SDS011;45163;47.690;11.770;2022-07-21T15:17:21;14.90;;;9.27;;
59366;SDS011;45163;47.690;11.770;2022-07-21T15:19:48;11.23;;;9.00;;
59366;SDS011;45163;47.690;11.770;2022-07-21T15:22:14;11.07;;;9.27;;
59366;SDS011;45163;47.690;11.770;2022-07-21T15:24:40;9.57;;;8.57;;
59366;SDS011;45163;47.690;11.770;2022-07-21T15:27:06;14.43;;;9.27;;
59366;SDS011;45163;47.690;11.770;2022-07-21T15:29:32;10.53;;;9.13;;
59366;SDS011;45163;47.690;11.770;2022-07-21T15:31:58;11.23;;;9.43;;
59366;SDS011;45163;47.690;11.770;2022-07-21T15:34:24;11.13;;;9.70;;
59366;SDS011;45163;47.690;11.770;2022-07-21T15:36:50;15.47;;;9.47;;
59366;SDS011;45163;47.690;11.770;2022-07-21T15:39:16;10.13;;;9.07;;
59366;SDS011;45163;47.690;11.770;2022-07-21T15:41:43;11.23;;;9.30;;
59366;SDS011;45163;47.690;11.770;2022-07-21T15:44:09;11.40;;;9.10;;
59366;SDS011;45163;47.690;11.770;2022-07-21T15:46:35;15.87;;;9.43;;
59366;SDS011;45163;47.690;11.770;2022-07-21T15:49:01;13.10;;;9.40;;
59366;SDS011;45163;47.690;11.770;2022-07-21T15:51:27;11.33;;;9.07;;